sensor_id;sensor_type;location;lat;lon;timestamp;pressure;altitude;pressure_sealevel;temperature;humidity
84767;BME280;74995;49.824;10.994;2024-02-26T00:02:16;97229.06;;;13.46;37.93
84767;BME280;74995;49.824;10.994;2024-02-26T00:04:41;97219.53;;;13.45;38.30
84767;BME280;74995;49.824;10.994;2024-02-26T00:07:06;97216.41;;;13.41;38.28
84767;BME280;74995;49.824;10.994;2024-02-26T00:09:32;97212.81;;;13.42;38.44
84767;BME280;74995;49.824;10.994;2024-02-26T00:12:01;97204.44;;;13.39;38.54
84767;BME280;74995;49.824;10.994;2024-02-26T00:14:26;97199.16;;;13.39;38.70
84767;BME280;74995;49.824;10.994;2024-02-26T00:16:51;97203.72;;;13.45;38.85
84767;BME280;74995;49.824;10.994;2024-02-26T00:19:16;97198.47;;;13.45;38.60
84767;BME280;74995;49.824;10.994;2024-02-26T00:21:42;97187.28;;;13.43;38.50
84767;BME280;74995;49.824;10.994;2024-02-26T00:24:07;97193.19;;;13.45;38.41
84767;BME280;74995;49.824;10.994;2024-02-26T00:26:32;97184.31;;;13.46;38.41
84767;BME280;74995;49.824;10.994;2024-02-26T00:28:57;97187.28;;;13.43;38.22
84767;BME280;74995;49.824;10.994;2024-02-26T00:31:23;97189.28;;;13.41;38.39
84767;BME280;74995;49.824;10.994;2024-02-26T00:33:48;97195.06;;;13.36;38.33
84767;BME280;74995;49.824;10.994;2024-02-26T00:36:13;97179.94;;;13.30;38.07
84767;BME280;74995;49.824;10.994;2024-02-26T00:38:39;97186.38;;;13.27;38.10
84767;BME280;74995;49.824;10.994;2024-02-26T00:41:05;97183.28;;;13.24;38.16
84767;BME280;74995;49.824;10.994;2024-02-26T00:43:30;97183.00;;;13.19;38.95
84767;BME280;74995;49.824;10.994;2024-02-26T00:45:56;97187.94;;;13.14;38.34
84767;BME280;74995;49.824;10.994;2024-02-26T00:48:21;97180.03;;;13.14;38.60
84767;BME280;74995;49.824;10.994;2024-02-26T00:50:46;97182.19;;;13.10;38.74
84767;BME280;74995;49.824;10.994;2024-02-26T00:53:11;97181.53;;;13.08;38.45
84767;BME280;74995;49.824;10.994;2024-02-26T00:55:37;97177.63;;;13.04;38.47
84767;BME280;74995;49.824;10.994;2024-02-26T00:58:02;97178.59;;;13.03;38.45
84767;BME280;74995;49.824;10.994;2024-02-26T01:00:28;97182.59;;;12.99;38.87
84767;BME280;74995;49.824;10.994;2024-02-26T01:02:53;97177.50;;;12.97;38.46
84767;BME280;74995;49.824;10.994;2024-02-26T01:05:18;97182.28;;;12.94;38.72
84767;BME280;74995;49.824;10.994;2024-02-26T01:07:43;97175.38;;;12.93;38.53
84767;BME280;74995;49.824;10.994;2024-02-26T01:10:09;97174.09;;;12.89;38.86
84767;BME280;74995;49.824;10.994;2024-02-26T01:12:35;97172.78;;;12.85;38.74
84767;BME280;74995;49.824;10.994;2024-02-26T01:15:00;97169.69;;;12.81;38.78
84767;BME280;74995;49.824;10.994;2024-02-26T01:17:26;97167.22;;;12.80;38.60
84767;BME280;74995;49.824;10.994;2024-02-26T01:19:51;97166.13;;;12.74;39.00
84767;BME280;74995;49.824;10.994;2024-02-26T01:22:16;97158.22;;;12.74;38.84
84767;BME280;74995;49.824;10.994;2024-02-26T01:24:41;97169.91;;;12.72;38.64
84767;BME280;74995;49.824;10.994;2024-02-26T01:27:07;97166.28;;;12.73;38.99
84767;BME280;74995;49.824;10.994;2024-02-26T01:29:34;97163.19;;;12.69;38.82
84767;BME280;74995;49.824;10.994;2024-02-26T01:31:59;97166.16;;;12.66;39.17
84767;BME280;74995;49.824;10.994;2024-02-26T01:34:24;97170.91;;;12.62;39.10
84767;BME280;74995;49.824;10.994;2024-02-26T01:36:49;97173.72;;;12.61;39.01
84767;BME280;74995;49.824;10.994;2024-02-26T01:39:15;97176.00;;;12.64;39.05
84767;BME280;74995;49.824;10.994;2024-02-26T01:41:40;97179.63;;;12.63;38.82
84767;BME280;74995;49.824;10.994;2024-02-26T01:44:06;97173.03;;;12.67;39.18
84767;BME280;74995;49.824;10.994;2024-02-26T01:46:32;97174.53;;;12.70;39.40
84767;BME280;74995;49.824;10.994;2024-02-26T01:48:58;97181.53;;;12.77;39.44
84767;BME280;74995;49.824;10.994;2024-02-26T01:51:24;97169.84;;;12.80;39.32
84767;BME280;74995;49.824;10.994;2024-02-26T01:53:49;97175.25;;;12.86;39.45
84767;BME280;74995;49.824;10.994;2024-02-26T01:56:14;97171.47;;;12.89;39.42
84767;BME280;74995;49.824;10.994;2024-02-26T01:58:41;97174.41;;;12.94;39.44
84767;BME280;74995;49.824;10.994;2024-02-26T02:01:06;97165.50;;;12.95;39.74
84767;BME280;74995;49.824;10.994;2024-02-26T02:03:32;97172.06;;;12.99;39.37
84767;BME280;74995;49.824;10.994;2024-02-26T02:05:58;97160.09;;;12.96;39.30
84767;BME280;74995;49.824;10.994;2024-02-26T02:08:23;97163.00;;;13.02;39.50
84767;BME280;74995;49.824;10.994;2024-02-26T02:10:49;97166.81;;;12.99;39.27
84767;BME280;74995;49.824;10.994;2024-02-26T02:13:15;97163.38;;;12.98;39.07
84767;BME280;74995;49.824;10.994;2024-02-26T02:15:40;97161.25;;;12.94;39.08
84767;BME280;74995;49.824;10.994;2024-02-26T02:18:06;97169.97;;;12.94;39.05
84767;BME280;74995;49.824;10.994;2024-02-26T02:20:32;97168.66;;;12.90;39.29
84767;BME280;74995;49.824;10.994;2024-02-26T02:22:58;97170.47;;;12.90;39.03
84767;BME280;74995;49.824;10.994;2024-02-26T02:25:23;97168.34;;;12.85;38.95
84767;BME280;74995;49.824;10.994;2024-02-26T02:27:48;97177.22;;;12.84;38.87
84767;BME280;74995;49.824;10.994;2024-02-26T02:30:13;97173.47;;;12.79;39.27
84767;BME280;74995;49.824;10.994;2024-02-26T02:32:40;97179.72;;;12.78;39.30
84767;BME280;74995;49.824;10.994;2024-02-26T02:35:09;97179.59;;;12.71;39.22
84767;BME280;74995;49.824;10.994;2024-02-26T02:37:34;97180.13;;;12.67;39.14
84767;BME280;74995;49.824;10.994;2024-02-26T02:39:59;97180.94;;;12.67;39.24
84767;BME280;74995;49.824;10.994;2024-02-26T02:42:25;97171.75;;;12.63;39.29
84767;BME280;74995;49.824;10.994;2024-02-26T02:44:51;97187.53;;;12.63;39.18
84767;BME280;74995;49.824;10.994;2024-02-26T02:47:16;97177.50;;;12.58;39.72
84767;BME280;74995;49.824;10.994;2024-02-26T02:49:41;97177.19;;;12.53;39.49
84767;BME280;74995;49.824;10.994;2024-02-26T02:52:06;97178.38;;;12.51;39.42
84767;BME280;74995;49.824;10.994;2024-02-26T02:54:32;97184.63;;;12.50;39.88
84767;BME280;74995;49.824;10.994;2024-02-26T02:56:57;97177.91;;;12.47;39.78
84767;BME280;74995;49.824;10.994;2024-02-26T02:59:23;97179.22;;;12.43;40.06
84767;BME280;74995;49.824;10.994;2024-02-26T03:01:48;97182.19;;;12.40;39.79
84767;BME280;74995;49.824;10.994;2024-02-26T03:04:13;97173.63;;;12.38;40.13
84767;BME280;74995;49.824;10.994;2024-02-26T03:06:39;97177.25;;;12.37;39.69
84767;BME280;74995;49.824;10.994;2024-02-26T03:09:04;97169.03;;;12.40;39.89
84767;BME280;74995;49.824;10.994;2024-02-26T03:11:29;97171.00;;;12.38;39.92
84767;BME280;74995;49.824;10.994;2024-02-26T03:13:55;97173.97;;;12.35;39.99
84767;BME280;74995;49.824;10.994;2024-02-26T03:16:20;97173.16;;;12.35;39.73
84767;BME280;74995;49.824;10.994;2024-02-26T03:18:45;97181.69;;;12.37;39.52
84767;BME280;74995;49.824;10.994;2024-02-26T03:21:10;97181.03;;;12.35;40.15
84767;BME280;74995;49.824;10.994;2024-02-26T03:23:36;97184.81;;;12.32;40.08
84767;BME280;74995;49.824;10.994;2024-02-26T03:26:03;97184.16;;;12.30;39.99
84767;BME280;74995;49.824;10.994;2024-02-26T03:28:28;97185.47;;;12.34;39.91
84767;BME280;74995;49.824;10.994;2024-02-26T03:30:54;97178.75;;;12.32;40.24
84767;BME280;74995;49.824;10.994;2024-02-26T03:33:19;97171.03;;;12.30;40.29
84767;BME280;74995;49.824;10.994;2024-02-26T03:35:44;97167.25;;;12.33;40.16
84767;BME280;74995;49.824;10.994;2024-02-26T03:38:10;97156.22;;;12.37;40.42
84767;BME280;74995;49.824;10.994;2024-02-26T03:43:38;97150.47;;;12.42;40.25
84767;BME280;74995;49.824;10.994;2024-02-26T03:46:03;97157.38;;;12.43;40.36
84767;BME280;74995;49.824;10.994;2024-02-26T03:48:29;97156.38;;;12.44;39.94
84767;BME280;74995;49.824;10.994;2024-02-26T03:50:54;97151.59;;;12.47;39.89
84767;BME280;74995;49.824;10.994;2024-02-26T03:53:19;97155.22;;;12.46;40.07
84767;BME280;74995;49.824;10.994;2024-02-26T03:55:44;97156.03;;;12.47;39.84
84767;BME280;74995;49.824;10.994;2024-02-26T03:58:12;97156.22;;;12.45;39.93
84767;BME280;74995;49.824;10.994;2024-02-26T04:00:37;97162.94;;;12.48;40.00
84767;BME280;74995;49.824;10.994;2024-02-26T04:03:02;97158.84;;;12.45;39.89
84767;BME280;74995;49.824;10.994;2024-02-26T04:05:28;97167.22;;;12.49;40.32
84767;BME280;74995;49.824;10.994;2024-02-26T04:07:53;97163.94;;;12.47;40.20
84767;BME280;74995;49.824;10.994;2024-02-26T04:10:18;97169.34;;;12.45;40.16
84767;BME280;74995;49.824;10.994;2024-02-26T04:12:43;97165.41;;;12.49;40.23
84767;BME280;74995;49.824;10.994;2024-02-26T04:15:09;97166.22;;;12.50;39.91
84767;BME280;74995;49.824;10.994;2024-02-26T04:17:34;97160.78;;;12.51;40.25
84767;BME280;74995;49.824;10.994;2024-02-26T04:20:00;97168.03;;;12.49;40.16
84767;BME280;74995;49.824;10.994;2024-02-26T04:22:25;97158.50;;;12.48;40.13
84767;BME280;74995;49.824;10.994;2024-02-26T04:24:50;97169.66;;;12.50;40.08
84767;BME280;74995;49.824;10.994;2024-02-26T04:27:16;97168.03;;;12.49;40.06
84767;BME280;74995;49.824;10.994;2024-02-26T04:29:41;97166.84;;;12.52;40.08
84767;BME280;74995;49.824;10.994;2024-02-26T04:32:06;97171.47;;;12.50;40.08
84767;BME280;74995;49.824;10.994;2024-02-26T04:34:31;97172.91;;;12.52;40.19
84767;BME280;74995;49.824;10.994;2024-02-26T04:36:57;97172.31;;;12.50;40.16
84767;BME280;74995;49.824;10.994;2024-02-26T04:39:22;97172.91;;;12.52;40.26
84767;BME280;74995;49.824;10.994;2024-02-26T04:41:47;97174.72;;;12.52;39.98
84767;BME280;74995;49.824;10.994;2024-02-26T04:44:12;97174.41;;;12.55;40.40
84767;BME280;74995;49.824;10.994;2024-02-26T04:46:38;97177.19;;;12.53;40.39
84767;BME280;74995;49.824;10.994;2024-02-26T04:49:03;97183.09;;;12.55;40.30
84767;BME280;74995;49.824;10.994;2024-02-26T04:51:28;97180.81;;;12.52;40.00
84767;BME280;74995;49.824;10.994;2024-02-26T04:53:53;97180.63;;;12.54;40.26
84767;BME280;74995;49.824;10.994;2024-02-26T04:56:20;97176.56;;;12.51;40.05
84767;BME280;74995;49.824;10.994;2024-02-26T04:58:45;97172.59;;;12.55;40.83
84767;BME280;74995;49.824;10.994;2024-02-26T05:01:11;97174.88;;;12.58;40.76
84767;BME280;74995;49.824;10.994;2024-02-26T05:03:36;97173.22;;;12.66;40.40
84767;BME280;74995;49.824;10.994;2024-02-26T05:06:01;97170.25;;;12.69;41.01
84767;BME280;74995;49.824;10.994;2024-02-26T05:08:27;97175.66;;;12.75;41.00
84767;BME280;74995;49.824;10.994;2024-02-26T05:10:52;97181.34;;;12.79;40.85
84767;BME280;74995;49.824;10.994;2024-02-26T05:13:17;97185.94;;;12.85;40.94
84767;BME280;74995;49.824;10.994;2024-02-26T05:15:43;97189.22;;;12.87;40.95
84767;BME280;74995;49.824;10.994;2024-02-26T05:18:08;97186.72;;;12.93;40.61
84767;BME280;74995;49.824;10.994;2024-02-26T05:20:33;97193.63;;;12.94;40.94
84767;BME280;74995;49.824;10.994;2024-02-26T05:23:01;97186.38;;;12.96;41.06
84767;BME280;74995;49.824;10.994;2024-02-26T05:25:26;97186.84;;;13.00;40.90
84767;BME280;74995;49.824;10.994;2024-02-26T05:27:51;97187.78;;;13.07;41.08
84767;BME280;74995;49.824;10.994;2024-02-26T05:30:17;97185.63;;;13.11;40.71
84767;BME280;74995;49.824;10.994;2024-02-26T05:32:42;97185.81;;;13.17;40.70
84767;BME280;74995;49.824;10.994;2024-02-26T05:35:07;97183.81;;;13.19;40.96
84767;BME280;74995;49.824;10.994;2024-02-26T05:37:33;97180.31;;;13.27;40.89
84767;BME280;74995;49.824;10.994;2024-02-26T05:39:59;97171.25;;;13.29;40.58
84767;BME280;74995;49.824;10.994;2024-02-26T05:42:24;97175.81;;;13.36;40.76
84767;BME280;74995;49.824;10.994;2024-02-26T05:44:49;97173.81;;;13.38;40.80
84767;BME280;74995;49.824;10.994;2024-02-26T05:47:15;97185.47;;;13.43;40.69
84767;BME280;74995;49.824;10.994;2024-02-26T05:49:40;97187.94;;;13.45;40.57
84767;BME280;74995;49.824;10.994;2024-02-26T05:52:06;97189.19;;;13.49;40.68
84767;BME280;74995;49.824;10.994;2024-02-26T05:54:31;97180.66;;;13.47;40.85
84767;BME280;74995;49.824;10.994;2024-02-26T05:56:57;97176.31;;;13.54;40.70
84767;BME280;74995;49.824;10.994;2024-02-26T05:59:22;97183.22;;;13.55;40.74
84767;BME280;74995;49.824;10.994;2024-02-26T06:01:48;97180.25;;;13.58;40.97
84767;BME280;74995;49.824;10.994;2024-02-26T06:04:13;97189.44;;;13.62;40.39
84767;BME280;74995;49.824;10.994;2024-02-26T06:06:38;97192.72;;;13.64;40.83
84767;BME280;74995;49.824;10.994;2024-02-26T06:09:03;97199.28;;;13.68;40.38
84767;BME280;74995;49.824;10.994;2024-02-26T06:11:30;97206.53;;;13.66;40.57
84767;BME280;74995;49.824;10.994;2024-02-26T06:13:56;97213.44;;;13.67;40.53
84767;BME280;74995;49.824;10.994;2024-02-26T06:16:21;97214.69;;;13.71;40.40
84767;BME280;74995;49.824;10.994;2024-02-26T06:18:47;97208.44;;;13.72;40.30
84767;BME280;74995;49.824;10.994;2024-02-26T06:21:12;97211.53;;;13.76;40.17
84767;BME280;74995;49.824;10.994;2024-02-26T06:23:38;97217.63;;;13.76;40.21
84767;BME280;74995;49.824;10.994;2024-02-26T06:26:03;97211.19;;;13.79;40.27
84767;BME280;74995;49.824;10.994;2024-02-26T06:28:29;97216.63;;;13.77;40.19
84767;BME280;74995;49.824;10.994;2024-02-26T06:30:55;97216.00;;;13.75;40.66
84767;BME280;74995;49.824;10.994;2024-02-26T06:33:21;97213.19;;;13.77;40.70
84767;BME280;74995;49.824;10.994;2024-02-26T06:35:46;97213.47;;;13.82;40.31
84767;BME280;74995;49.824;10.994;2024-02-26T06:38:11;97218.56;;;13.83;40.37
84767;BME280;74995;49.824;10.994;2024-02-26T06:40:38;97229.41;;;13.88;40.38
84767;BME280;74995;49.824;10.994;2024-02-26T06:43:04;97228.75;;;13.86;40.33
84767;BME280;74995;49.824;10.994;2024-02-26T06:45:29;97224.78;;;13.90;40.34
84767;BME280;74995;49.824;10.994;2024-02-26T06:47:54;97234.69;;;13.88;40.47
84767;BME280;74995;49.824;10.994;2024-02-26T06:50:21;97236.03;;;13.84;40.54
84767;BME280;74995;49.824;10.994;2024-02-26T06:52:46;97247.22;;;13.86;40.25
84767;BME280;74995;49.824;10.994;2024-02-26T06:55:12;97252.78;;;13.91;40.28
84767;BME280;74995;49.824;10.994;2024-02-26T06:57:38;97261.66;;;13.90;40.54
84767;BME280;74995;49.824;10.994;2024-02-26T07:00:03;97266.94;;;13.90;40.24
84767;BME280;74995;49.824;10.994;2024-02-26T07:02:30;97271.47;;;13.96;40.32
84767;BME280;74995;49.824;10.994;2024-02-26T07:04:55;97259.31;;;13.95;40.41
84767;BME280;74995;49.824;10.994;2024-02-26T07:07:23;97263.22;;;13.99;40.12
84767;BME280;74995;49.824;10.994;2024-02-26T07:09:48;97259.78;;;13.99;40.24
84767;BME280;74995;49.824;10.994;2024-02-26T07:12:14;97268.16;;;14.03;40.36
84767;BME280;74995;49.824;10.994;2024-02-26T07:14:39;97272.41;;;14.04;40.32
84767;BME280;74995;49.824;10.994;2024-02-26T07:17:04;97260.53;;;14.08;40.41
84767;BME280;74995;49.824;10.994;2024-02-26T07:19:29;97265.81;;;14.08;40.36
84767;BME280;74995;49.824;10.994;2024-02-26T07:21:55;97265.47;;;14.11;40.39
84767;BME280;74995;49.824;10.994;2024-02-26T07:24:20;97281.09;;;14.12;40.26
84767;BME280;74995;49.824;10.994;2024-02-26T07:26:45;97278.28;;;14.14;40.17
84767;BME280;74995;49.824;10.994;2024-02-26T07:29:11;97282.72;;;14.13;40.24
84767;BME280;74995;49.824;10.994;2024-02-26T07:31:36;97284.72;;;14.11;40.39
84767;BME280;74995;49.824;10.994;2024-02-26T07:34:01;97277.94;;;14.17;40.43
84767;BME280;74995;49.824;10.994;2024-02-26T07:36:27;97290.09;;;14.18;40.40
84767;BME280;74995;49.824;10.994;2024-02-26T07:38:52;97287.75;;;14.23;40.21
84767;BME280;74995;49.824;10.994;2024-02-26T07:41:19;97298.28;;;14.23;40.28
84767;BME280;74995;49.824;10.994;2024-02-26T07:43:44;97286.09;;;14.22;40.28
84767;BME280;74995;49.824;10.994;2024-02-26T07:46:12;97286.38;;;14.27;40.15
84767;BME280;74995;49.824;10.994;2024-02-26T07:48:38;97296.28;;;14.25;40.04
84767;BME280;74995;49.824;10.994;2024-02-26T07:51:03;97288.38;;;14.25;40.23
84767;BME280;74995;49.824;10.994;2024-02-26T07:53:29;97291.50;;;14.28;40.17
84767;BME280;74995;49.824;10.994;2024-02-26T07:55:55;97291.50;;;14.28;40.00
84767;BME280;74995;49.824;10.994;2024-02-26T07:58:21;97291.13;;;14.31;39.95
84767;BME280;74995;49.824;10.994;2024-02-26T08:00:46;97294.94;;;14.29;39.76
84767;BME280;74995;49.824;10.994;2024-02-26T08:03:12;97303.84;;;14.28;40.16
84767;BME280;74995;49.824;10.994;2024-02-26T08:05:38;97297.94;;;14.26;40.11
84767;BME280;74995;49.824;10.994;2024-02-26T08:08:06;97297.94;;;14.26;40.33
84767;BME280;74995;49.824;10.994;2024-02-26T08:10:31;97306.66;;;14.26;40.29
84767;BME280;74995;49.824;10.994;2024-02-26T08:12:57;97300.41;;;14.27;40.23
84767;BME280;74995;49.824;10.994;2024-02-26T08:15:30;97307.59;;;14.33;40.14
84767;BME280;74995;49.824;10.994;2024-02-26T08:17:55;97314.69;;;14.33;40.31
84767;BME280;74995;49.824;10.994;2024-02-26T08:20:20;97317.63;;;14.38;40.19
84767;BME280;74995;49.824;10.994;2024-02-26T08:22:46;97321.25;;;14.37;40.08
84767;BME280;74995;49.824;10.994;2024-02-26T08:25:11;97319.91;;;14.41;40.03
84767;BME280;74995;49.824;10.994;2024-02-26T08:27:36;97320.91;;;14.40;39.99
84767;BME280;74995;49.824;10.994;2024-02-26T08:30:02;97328.47;;;14.43;39.96
84767;BME280;74995;49.824;10.994;2024-02-26T08:32:27;97329.81;;;14.39;40.03
84767;BME280;74995;49.824;10.994;2024-02-26T08:34:52;97325.19;;;14.41;39.94
84767;BME280;74995;49.824;10.994;2024-02-26T08:37:18;97333.28;;;14.40;40.06
84767;BME280;74995;49.824;10.994;2024-02-26T08:39:43;97333.75;;;14.43;39.97
84767;BME280;74995;49.824;10.994;2024-02-26T08:42:08;97337.38;;;14.42;40.05
84767;BME280;74995;49.824;10.994;2024-02-26T08:44:33;97332.75;;;14.44;39.90
84767;BME280;74995;49.824;10.994;2024-02-26T08:46:59;97330.94;;;14.45;40.02
84767;BME280;74995;49.824;10.994;2024-02-26T08:49:24;97331.75;;;14.45;39.81
84767;BME280;74995;49.824;10.994;2024-02-26T08:51:49;97329.47;;;14.42;39.72
84767;BME280;74995;49.824;10.994;2024-02-26T08:54:15;97326.53;;;14.37;39.46
84767;BME280;74995;49.824;10.994;2024-02-26T08:56:40;97338.06;;;14.36;39.40
84767;BME280;74995;49.824;10.994;2024-02-26T08:59:05;97340.25;;;14.32;39.48
84767;BME280;74995;49.824;10.994;2024-02-26T09:01:31;97343.41;;;14.28;39.52
84767;BME280;74995;49.824;10.994;2024-02-26T09:03:56;97351.31;;;14.28;39.59
84767;BME280;74995;49.824;10.994;2024-02-26T09:06:21;97361.38;;;14.24;39.65
84767;BME280;74995;49.824;10.994;2024-02-26T09:08:47;97355.94;;;14.26;39.80
84767;BME280;74995;49.824;10.994;2024-02-26T09:11:12;97355.28;;;14.24;39.97
84767;BME280;74995;49.824;10.994;2024-02-26T09:13:37;97349.38;;;14.22;39.83
84767;BME280;74995;49.824;10.994;2024-02-26T09:16:03;97346.22;;;14.26;39.64
84767;BME280;74995;49.824;10.994;2024-02-26T09:18:28;97346.03;;;14.28;39.90
84767;BME280;74995;49.824;10.994;2024-02-26T09:20:54;97350.78;;;14.32;39.60
84767;BME280;74995;49.824;10.994;2024-02-26T09:23:19;97346.69;;;14.30;39.79
84767;BME280;74995;49.824;10.994;2024-02-26T09:25:44;97343.69;;;14.33;39.63
84767;BME280;74995;49.824;10.994;2024-02-26T09:28:09;97337.78;;;14.31;39.64
84767;BME280;74995;49.824;10.994;2024-02-26T09:30:35;97340.06;;;14.34;39.67
84767;BME280;74995;49.824;10.994;2024-02-26T09:33:00;97349.63;;;14.35;39.72
84767;BME280;74995;49.824;10.994;2024-02-26T09:35:25;97341.19;;;14.40;39.51
84767;BME280;74995;49.824;10.994;2024-02-26T09:37:51;97339.72;;;14.37;39.61
84767;BME280;74995;49.824;10.994;2024-02-26T09:40:17;97337.38;;;14.42;39.69
84767;BME280;74995;49.824;10.994;2024-02-26T09:42:43;97340.81;;;14.43;39.77
84767;BME280;74995;49.824;10.994;2024-02-26T09:45:12;97345.56;;;14.47;39.62
84767;BME280;74995;49.824;10.994;2024-02-26T09:47:38;97342.28;;;14.45;39.87
84767;BME280;74995;49.824;10.994;2024-02-26T09:50:06;97344.94;;;14.45;39.87
84767;BME280;74995;49.824;10.994;2024-02-26T09:52:35;97342.94;;;14.47;39.84
84767;BME280;74995;49.824;10.994;2024-02-26T09:55:03;97345.56;;;14.47;39.78
84767;BME280;74995;49.824;10.994;2024-02-26T09:57:29;97351.50;;;14.49;39.90
84767;BME280;74995;49.824;10.994;2024-02-26T09:59:54;97347.50;;;14.53;39.86
84767;BME280;74995;49.824;10.994;2024-02-26T10:02:24;97346.44;;;14.62;39.73
84767;BME280;74995;49.824;10.994;2024-02-26T10:04:50;97347.06;;;14.64;39.54
84767;BME280;74995;49.824;10.994;2024-02-26T10:07:17;97347.06;;;14.64;39.87
84767;BME280;74995;49.824;10.994;2024-02-26T10:09:43;97348.53;;;14.67;39.54
84767;BME280;74995;49.824;10.994;2024-02-26T10:12:10;97346.34;;;14.71;39.46
84767;BME280;74995;49.824;10.994;2024-02-26T10:14:36;97347.28;;;14.78;39.36
84767;BME280;74995;49.824;10.994;2024-02-26T10:17:02;97346.91;;;14.81;39.42
84767;BME280;74995;49.824;10.994;2024-02-26T10:19:29;97345.00;;;14.89;39.17
84767;BME280;74995;49.824;10.994;2024-02-26T10:21:58;97344.00;;;14.90;39.27
84767;BME280;74995;49.824;10.994;2024-02-26T10:24:25;97338.53;;;14.92;39.44
84767;BME280;74995;49.824;10.994;2024-02-26T10:26:51;97334.09;;;14.92;39.36
84767;BME280;74995;49.824;10.994;2024-02-26T10:29:18;97343.94;;;14.98;39.39
84767;BME280;74995;49.824;10.994;2024-02-26T10:31:43;97337.47;;;15.01;39.41
84767;BME280;74995;49.824;10.994;2024-02-26T10:34:08;97348.13;;;15.08;39.20
84767;BME280;74995;49.824;10.994;2024-02-26T10:36:34;97349.47;;;15.18;38.87
84767;BME280;74995;49.824;10.994;2024-02-26T10:39:02;97350.13;;;15.20;38.67
84767;BME280;74995;49.824;10.994;2024-02-26T10:41:28;97348.94;;;15.23;38.61
84767;BME280;74995;49.824;10.994;2024-02-26T10:43:54;97354.50;;;15.28;38.72
84767;BME280;74995;49.824;10.994;2024-02-26T10:46:19;97345.03;;;15.33;38.26
84767;BME280;74995;49.824;10.994;2024-02-26T10:48:51;97338.97;;;15.40;38.36
84767;BME280;74995;49.824;10.994;2024-02-26T10:51:21;97319.50;;;15.41;38.27
84767;BME280;74995;49.824;10.994;2024-02-26T10:53:49;97321.22;;;15.48;38.14
84767;BME280;74995;49.824;10.994;2024-02-26T10:56:18;97320.03;;;15.51;38.22
84767;BME280;74995;49.824;10.994;2024-02-26T10:58:46;97313.56;;;15.53;38.09
84767;BME280;74995;49.824;10.994;2024-02-26T11:01:12;97317.50;;;15.57;38.17
84767;BME280;74995;49.824;10.994;2024-02-26T11:03:38;97323.03;;;15.62;38.13
84767;BME280;74995;49.824;10.994;2024-02-26T11:06:04;97320.03;;;15.65;38.00
84767;BME280;74995;49.824;10.994;2024-02-26T11:08:30;97332.69;;;15.70;37.82
84767;BME280;74995;49.824;10.994;2024-02-26T11:10:57;97342.69;;;15.75;37.83
84767;BME280;74995;49.824;10.994;2024-02-26T11:13:27;97343.16;;;15.78;37.70
84767;BME280;74995;49.824;10.994;2024-02-26T11:15:55;97354.78;;;15.84;37.81
84767;BME280;74995;49.824;10.994;2024-02-26T11:18:23;97344.66;;;15.87;37.99
84767;BME280;74995;49.824;10.994;2024-02-26T11:20:49;97356.69;;;15.90;37.87
84767;BME280;74995;49.824;10.994;2024-02-26T11:23:16;97346.38;;;15.95;37.78
84767;BME280;74995;49.824;10.994;2024-02-26T11:25:41;97349.47;;;15.98;37.53
84767;BME280;74995;49.824;10.994;2024-02-26T11:28:12;97351.72;;;16.01;37.56
84767;BME280;74995;49.824;10.994;2024-02-26T11:30:48;97350.97;;;16.08;37.74
84767;BME280;74995;49.824;10.994;2024-02-26T11:33:15;97344.09;;;16.13;37.55
84767;BME280;74995;49.824;10.994;2024-02-26T11:35:40;97344.38;;;16.18;37.55
84767;BME280;74995;49.824;10.994;2024-02-26T11:38:06;97346.06;;;16.26;37.68
84767;BME280;74995;49.824;10.994;2024-02-26T11:40:33;97345.28;;;16.32;37.68
84767;BME280;74995;49.824;10.994;2024-02-26T11:43:03;97338.88;;;16.41;37.69
84767;BME280;74995;49.824;10.994;2024-02-26T11:48:20;97355.72;;;16.61;37.26
84767;BME280;74995;49.824;10.994;2024-02-26T11:50:47;97363.38;;;16.71;37.12
84767;BME280;74995;49.824;10.994;2024-02-26T11:53:25;97347.34;;;16.79;36.88
84767;BME280;74995;49.824;10.994;2024-02-26T11:58:41;97353.16;;;16.96;36.70
84767;BME280;74995;49.824;10.994;2024-02-26T12:01:35;97345.25;;;17.02;36.41
84767;BME280;74995;49.824;10.994;2024-02-26T12:04:01;97345.28;;;17.09;36.22
84767;BME280;74995;49.824;10.994;2024-02-26T12:06:27;97345.16;;;17.17;36.45
84767;BME280;74995;49.824;10.994;2024-02-26T12:08:54;97354.56;;;17.26;36.02
84767;BME280;74995;49.824;10.994;2024-02-26T12:11:20;97360.09;;;17.31;35.72
84767;BME280;74995;49.824;10.994;2024-02-26T12:13:47;97360.13;;;17.38;35.74
84767;BME280;74995;49.824;10.994;2024-02-26T12:16:38;97359.56;;;17.43;35.45
84767;BME280;74995;49.824;10.994;2024-02-26T12:19:07;97362.22;;;17.49;35.35
84767;BME280;74995;49.824;10.994;2024-02-26T12:21:34;97366.31;;;17.52;35.42
84767;BME280;74995;49.824;10.994;2024-02-26T12:24:11;97362.44;;;17.54;35.22
84767;BME280;74995;49.824;10.994;2024-02-26T12:26:38;97360.22;;;17.58;35.19
84767;BME280;74995;49.824;10.994;2024-02-26T12:29:03;97363.09;;;17.63;34.85
84767;BME280;74995;49.824;10.994;2024-02-26T12:31:29;97365.38;;;17.66;34.61
84767;BME280;74995;49.824;10.994;2024-02-26T12:33:56;97365.00;;;17.69;34.71
84767;BME280;74995;49.824;10.994;2024-02-26T12:36:21;97367.22;;;17.72;34.63
84767;BME280;74995;49.824;10.994;2024-02-26T12:38:48;97369.28;;;17.77;34.37
84767;BME280;74995;49.824;10.994;2024-02-26T12:41:15;97381.13;;;17.81;34.15
84767;BME280;74995;49.824;10.994;2024-02-26T12:43:41;97380.75;;;17.84;34.07
84767;BME280;74995;49.824;10.994;2024-02-26T12:46:06;97383.81;;;17.87;34.23
84767;BME280;74995;49.824;10.994;2024-02-26T12:48:32;97382.63;;;17.90;33.68
84767;BME280;74995;49.824;10.994;2024-02-26T12:50:57;97387.53;;;17.93;34.04
84767;BME280;74995;49.824;10.994;2024-02-26T12:53:22;97378.94;;;17.97;33.76